North Arlington, New Jersey
Current Conditions -  °F | °C
As of 12:51 AM on Sunday 26 Oct 2014 (Local Time) from KTEB Reporting Station
Light Rain Light Rain  
Wind Chill: 60°   Ceiling: 6000
Heat Index: 60°   Visibility: 10mi
Dew Point: 48°   Wind: 14mph
Humidity: 64%   Direction: 270°W
Pressure: 29.57"   Gusts: 22mph
Location:  40.79°N, 74.13°W
Report Text: KTEB 260451Z 27012G19KT 10SM -RA OVC060 16/09 A2957 RMK AO2 RAB20 SLP013 P0001 T01560089 402060056
Loading
Personal Weather Stations






























Interactive Weather Map
Tropical Storm Tracking
New forecast layout! Learn more

10-Day Weather Forecast

Advertisements
Track Severe Weather on mobile